Time;durP1;ratioP1;P1;durP2;ratioP2;P2;SDS_P1;SDS_P2;PMS_P1;PMS_P2;Temp;Humidity;BMP_temperature;BMP_pressure;BME280_temperature;BME280_humidity;BME280_pressure;Samples;Min_cycle;Max_cycle;Signal;HPM_P1;HPM_P2
2022/04/30 00:00:50;;;;;;;4.30;1.95;;;;;;;;;;5110435;28;20027;-53
2022/04/30 00:03:19;;;;;;;3.72;1.58;;;;;;;;;;5104571;28;20188;-54
2022/04/30 00:05:45;;;;;;;4.65;1.42;;;;;;;;;;5105392;28;20036;-55
2022/04/30 00:08:11;;;;;;;4.13;1.58;;;;;;;;;;5109993;28;20554;-54
2022/04/30 00:10:37;;;;;;;3.80;1.55;;;;;;;;;;5110064;28;20059;-54
2022/04/30 00:13:06;;;;;;;3.20;1.55;;;;;;;;;;5109131;28;20035;-51
2022/04/30 00:15:34;;;;;;;2.97;1.20;;;;;;;;;;5109860;28;20106;-54
2022/04/30 00:18:00;;;;;;;3.97;1.77;;;;;;;;;;5109639;28;20098;-54
2022/04/30 00:20:26;;;;;;;6.43;1.50;;;;;;;;;;5109629;28;20113;-53
2022/04/30 00:22:52;;;;;;;4.93;1.58;;;;;;;;;;5108554;28;20143;-52
2022/04/30 00:25:19;;;;;;;3.47;1.50;;;;;;;;;;5109669;28;20414;-49
2022/04/30 00:27:45;;;;;;;5.57;1.83;;;;;;;;;;5109977;28;20172;-55
2022/04/30 00:30:11;;;;;;;4.18;1.65;;;;;;;;;;5109157;28;20020;-55
2022/04/30 00:32:37;;;;;;;2.72;1.38;;;;;;;;;;5109572;28;20023;-55
2022/04/30 00:35:03;;;;;;;2.70;1.63;;;;;;;;;;5109438;28;20027;-52
2022/04/30 00:37:30;;;;;;;6.07;1.88;;;;;;;;;;5110185;28;20173;-55
2022/04/30 00:39:56;;;;;;;3.25;1.35;;;;;;;;;;5109687;28;20039;-55
2022/04/30 00:42:22;;;;;;;3.35;1.40;;;;;;;;;;5109581;28;20103;-54
2022/04/30 00:44:49;;;;;;;2.58;1.38;;;;;;;;;;5109605;28;20076;-54
2022/04/30 00:47:16;;;;;;;2.28;1.45;;;;;;;;;;5109445;28;20051;-53
2022/04/30 00:49:43;;;;;;;3.10;1.58;;;;;;;;;;5100456;28;20074;-55
2022/04/30 00:52:09;;;;;;;4.90;2.00;;;;;;;;;;5109751;28;20036;-55
2022/04/30 00:54:37;;;;;;;5.50;2.17;;;;;;;;;;5108925;28;20044;-56
2022/04/30 00:57:04;;;;;;;3.30;1.70;;;;;;;;;;5108823;28;20102;-56
2022/04/30 00:59:33;;;;;;;3.28;1.65;;;;;;;;;;5108684;28;20067;-56
2022/04/30 01:01:59;;;;;;;2.88;1.60;;;;;;;;;;5109351;28;20023;-54
2022/04/30 01:04:26;;;;;;;2.75;1.50;;;;;;;;;;5108013;28;20470;-55
2022/04/30 01:06:52;;;;;;;5.00;1.75;;;;;;;;;;5109329;28;20103;-54
2022/04/30 01:09:20;;;;;;;2.28;1.40;;;;;;;;;;5109230;28;20036;-56
2022/04/30 01:11:47;;;;;;;3.50;1.80;;;;;;;;;;5101457;28;20024;-56
2022/04/30 01:14:14;;;;;;;3.85;1.63;;;;;;;;;;5089087;28;20478;-52
2022/04/30 01:16:40;;;;;;;4.72;1.80;;;;;;;;;;5108714;28;20114;-55
2022/04/30 01:19:07;;;;;;;3.25;1.73;;;;;;;;;;5109237;28;20028;-52
2022/04/30 01:21:34;;;;;;;3.97;1.70;;;;;;;;;;5108516;28;20035;-56
2022/04/30 01:24:01;;;;;;;5.10;1.70;;;;;;;;;;5108905;28;20079;-51
2022/04/30 01:26:28;;;;;;;2.88;1.48;;;;;;;;;;5106769;28;20114;-55
2022/04/30 01:28:54;;;;;;;4.65;1.70;;;;;;;;;;5108799;28;20024;-53
2022/04/30 01:39:35;;;;;;;2.78;1.50;;;;;;;;;;5108733;28;20566;-55
2022/04/30 01:42:12;;;;;;;3.42;1.70;;;;;;;;;;5108598;28;20049;-53
2022/04/30 01:44:42;;;;;;;4.28;1.55;;;;;;;;;;5088511;28;20035;-55
2022/04/30 01:47:08;;;;;;;4.20;1.90;;;;;;;;;;5102487;28;20031;-51
2022/04/30 01:49:34;;;;;;;4.00;1.92;;;;;;;;;;5108634;28;20036;-55
2022/04/30 01:52:06;;;;;;;4.30;1.70;;;;;;;;;;5108416;28;20035;-49
2022/04/30 01:54:32;;;;;;;5.43;1.80;;;;;;;;;;5108489;28;20034;-51
2022/04/30 01:56:58;;;;;;;3.03;1.45;;;;;;;;;;5108520;28;20114;-52
2022/04/30 01:59:24;;;;;;;4.43;1.73;;;;;;;;;;5108677;28;20106;-55
2022/04/30 02:01:50;;;;;;;4.78;1.77;;;;;;;;;;5107548;28;20027;-55
2022/04/30 02:04:17;;;;;;;3.13;1.73;;;;;;;;;;5100198;28;20030;-54
2022/04/30 02:06:43;;;;;;;3.30;1.30;;;;;;;;;;5107811;28;20390;-55
2022/04/30 02:09:09;;;;;;;4.05;1.77;;;;;;;;;;5108548;28;20104;-55
2022/04/30 02:11:35;;;;;;;5.40;1.80;;;;;;;;;;5106315;28;20028;-56
2022/04/30 02:14:02;;;;;;;4.68;1.73;;;;;;;;;;5108370;28;20027;-55
2022/04/30 02:16:29;;;;;;;2.13;1.30;;;;;;;;;;5108404;28;20032;-52
2022/04/30 02:18:55;;;;;;;3.03;1.58;;;;;;;;;;5107193;28;20119;-54
2022/04/30 02:21:23;;;;;;;2.95;1.50;;;;;;;;;;5108021;28;20183;-51
2022/04/30 02:23:49;;;;;;;3.85;2.25;;;;;;;;;;5107732;28;20053;-54
2022/04/30 02:26:16;;;;;;;2.13;1.40;;;;;;;;;;5108585;28;20023;-53
2022/04/30 02:28:42;;;;;;;3.03;1.88;;;;;;;;;;5107686;28;20074;-55
2022/04/30 02:31:08;;;;;;;4.53;1.60;;;;;;;;;;5108198;28;20134;-53
2022/04/30 02:33:34;;;;;;;4.80;1.80;;;;;;;;;;5107530;28;20015;-52
2022/04/30 02:36:01;;;;;;;2.53;1.50;;;;;;;;;;5107891;28;20505;-54
2022/04/30 02:38:28;;;;;;;4.10;2.00;;;;;;;;;;5108268;28;20034;-52
2022/04/30 02:40:55;;;;;;;3.75;1.88;;;;;;;;;;5108208;28;20031;-53
2022/04/30 02:43:26;;;;;;;3.50;1.58;;;;;;;;;;5109937;28;20081;-52
2022/04/30 02:45:52;;;;;;;5.05;2.00;;;;;;;;;;5112611;28;20493;-53
2022/04/30 02:48:18;;;;;;;3.42;1.48;;;;;;;;;;5111381;28;20169;-55
2022/04/30 02:50:44;;;;;;;4.07;1.48;;;;;;;;;;5111916;28;20437;-54
2022/04/30 02:53:10;;;;;;;5.57;1.88;;;;;;;;;;5111738;28;20024;-55
2022/04/30 02:55:37;;;;;;;4.65;1.98;;;;;;;;;;5111534;28;20700;-53
2022/04/30 03:00:51;;;;;;;2.60;1.48;;;;;;;;;;5111971;28;20130;-54
2022/04/30 03:03:17;;;;;;;3.83;1.92;;;;;;;;;;5111593;28;20031;-55
2022/04/30 03:05:47;;;;;;;3.33;1.60;;;;;;;;;;5111348;28;20031;-51
2022/04/30 03:08:19;;;;;;;4.20;1.60;;;;;;;;;;5111547;28;20055;-55
2022/04/30 03:10:46;;;;;;;4.63;2.13;;;;;;;;;;5107618;28;20023;-51
2022/04/30 03:13:19;;;;;;;3.38;1.70;;;;;;;;;;5093808;28;20557;-53
2022/04/30 03:15:46;;;;;;;3.78;1.83;;;;;;;;;;5099127;28;20482;-53
2022/04/30 03:23:38;;;;;;;2.80;1.67;;;;;;;;;;5111574;28;20134;-56
2022/04/30 03:26:13;;;;;;;4.38;1.95;;;;;;;;;;5110645;28;20127;-54
2022/04/30 03:28:40;;;;;;;5.25;2.05;;;;;;;;;;5110872;28;20027;-51
2022/04/30 03:31:09;;;;;;;3.80;1.70;;;;;;;;;;5110124;28;20787;-52
2022/04/30 03:33:35;;;;;;;4.03;2.10;;;;;;;;;;5110876;28;20059;-52
2022/04/30 03:36:02;;;;;;;5.65;2.05;;;;;;;;;;5110502;28;20027;-53
2022/04/30 03:38:28;;;;;;;4.15;2.10;;;;;;;;;;5110995;28;20051;-54
2022/04/30 03:40:54;;;;;;;4.65;1.85;;;;;;;;;;5110733;28;20038;-55
2022/04/30 03:43:21;;;;;;;4.78;2.15;;;;;;;;;;5110985;28;20784;-54
2022/04/30 03:45:49;;;;;;;4.03;1.77;;;;;;;;;;5103874;28;20046;-50
2022/04/30 03:48:15;;;;;;;5.50;2.10;;;;;;;;;;5110930;28;20430;-52
2022/04/30 03:50:44;;;;;;;4.45;2.25;;;;;;;;;;5110052;28;20031;-53
2022/04/30 03:53:10;;;;;;;4.55;1.88;;;;;;;;;;5110505;28;20107;-52
2022/04/30 03:55:37;;;;;;;3.83;1.88;;;;;;;;;;5110683;28;20107;-55
2022/04/30 03:58:03;;;;;;;4.13;1.83;;;;;;;;;;5110651;28;20038;-52
2022/04/30 04:00:29;;;;;;;6.03;2.08;;;;;;;;;;5109858;28;20024;-54
2022/04/30 04:02:57;;;;;;;7.75;2.80;;;;;;;;;;5110522;28;20020;-54
2022/04/30 04:05:23;;;;;;;6.35;2.05;;;;;;;;;;5109915;28;20031;-55
2022/04/30 04:07:49;;;;;;;3.67;2.10;;;;;;;;;;5110224;28;20030;-55
2022/04/30 04:10:15;;;;;;;8.32;2.25;;;;;;;;;;5110654;28;20031;-54
2022/04/30 04:12:41;;;;;;;4.60;2.30;;;;;;;;;;5108702;28;20674;-52
2022/04/30 04:17:54;;;;;;;4.28;2.00;;;;;;;;;;5109228;28;20031;-52
2022/04/30 04:20:24;;;;;;;4.68;2.13;;;;;;;;;;5109932;28;20710;-51
2022/04/30 04:22:51;;;;;;;4.60;1.75;;;;;;;;;;5110163;28;20023;-54
2022/04/30 04:28:02;;;;;;;4.53;2.13;;;;;;;;;;5108532;28;20119;-55
2022/04/30 04:30:29;;;;;;;2.72;1.63;;;;;;;;;;5107441;28;20024;-55
2022/04/30 04:32:56;;;;;;;3.42;1.90;;;;;;;;;;5109722;28;20405;-55
2022/04/30 04:35:22;;;;;;;4.35;1.90;;;;;;;;;;5109778;28;20066;-52
2022/04/30 04:37:48;;;;;;;3.83;2.17;;;;;;;;;;5109389;28;20540;-51
2022/04/30 04:40:15;;;;;;;5.20;2.30;;;;;;;;;;5110157;28;20650;-53
2022/04/30 04:42:42;;;;;;;5.20;2.08;;;;;;;;;;5108024;28;20430;-54
2022/04/30 04:45:08;;;;;;;4.35;2.22;;;;;;;;;;5109695;27;20111;-52
2022/04/30 04:47:35;;;;;;;78.43;10.85;;;;;;;;;;5108961;28;20106;-54
2022/04/30 04:50:02;;;;;;;47.33;7.60;;;;;;;;;;5109636;28;20039;-55
2022/04/30 04:52:28;;;;;;;100.07;10.43;;;;;;;;;;5109374;28;20068;-56
2022/04/30 04:54:54;;;;;;;45.85;8.48;;;;;;;;;;5109251;28;20039;-55
2022/04/30 04:57:20;;;;;;;22.23;8.55;;;;;;;;;;5107900;28;20730;-56
2022/04/30 04:59:46;;;;;;;23.30;8.32;;;;;;;;;;5109122;28;20043;-54
2022/04/30 05:02:13;;;;;;;27.27;6.72;;;;;;;;;;5109280;28;20386;-55
2022/04/30 05:04:39;;;;;;;17.42;6.05;;;;;;;;;;5108028;28;20114;-55
2022/04/30 05:07:05;;;;;;;10.27;6.25;;;;;;;;;;5109410;28;20020;-55
2022/04/30 05:09:31;;;;;;;15.77;6.30;;;;;;;;;;5108761;28;20072;-53
2022/04/30 05:12:01;;;;;;;9.70;4.63;;;;;;;;;;5097699;28;20530;-55
2022/04/30 05:14:29;;;;;;;15.70;5.83;;;;;;;;;;5106882;28;20039;-54
2022/04/30 05:16:55;;;;;;;11.52;5.03;;;;;;;;;;5109352;28;20020;-54
2022/04/30 05:19:21;;;;;;;11.35;4.80;;;;;;;;;;5108244;28;20505;-54
2022/04/30 05:21:47;;;;;;;12.40;5.03;;;;;;;;;;5108897;28;20031;-55
2022/04/30 05:24:12;;;;;;;7.68;3.92;;;;;;;;;;5108745;28;20554;-55
2022/04/30 05:26:39;;;;;;;10.65;4.22;;;;;;;;;;5107184;28;20036;-54
2022/04/30 05:29:05;;;;;;;10.75;4.43;;;;;;;;;;5109075;28;20023;-53
2022/04/30 05:31:31;;;;;;;9.93;3.85;;;;;;;;;;5108281;28;20172;-55
2022/04/30 05:33:57;;;;;;;8.23;3.88;;;;;;;;;;5108694;28;20493;-54
2022/04/30 05:36:23;;;;;;;12.18;3.40;;;;;;;;;;5109097;28;20039;-53
2022/04/30 05:38:49;;;;;;;10.15;4.03;;;;;;;;;;5108593;28;20478;-54
2022/04/30 05:41:15;;;;;;;7.13;4.00;;;;;;;;;;5103469;28;20080;-52
2022/04/30 05:43:41;;;;;;;9.98;4.30;;;;;;;;;;5108274;28;20023;-53
2022/04/30 05:46:07;;;;;;;7.28;3.60;;;;;;;;;;5109183;28;20032;-54
2022/04/30 05:48:33;;;;;;;10.07;4.28;;;;;;;;;;5108591;28;20080;-53
2022/04/30 05:51:00;;;;;;;9.45;3.90;;;;;;;;;;5108770;28;20119;-53
2022/04/30 05:53:26;;;;;;;15.68;4.05;;;;;;;;;;5108702;28;20031;-56
2022/04/30 05:55:52;;;;;;;17.17;3.72;;;;;;;;;;5107867;28;20543;-54
2022/04/30 05:58:18;;;;;;;16.45;4.68;;;;;;;;;;5108604;28;20494;-54
2022/04/30 06:00:45;;;;;;;13.40;3.33;;;;;;;;;;5107889;28;20028;-50
2022/04/30 06:03:11;;;;;;;17.25;3.97;;;;;;;;;;5108113;28;20043;-54
2022/04/30 06:05:37;;;;;;;14.27;3.60;;;;;;;;;;5108500;28;20452;-56
2022/04/30 06:08:04;;;;;;;12.98;3.80;;;;;;;;;;5108640;28;20035;-53
2022/04/30 06:10:30;;;;;;;22.33;3.80;;;;;;;;;;5108617;28;20034;-54
2022/04/30 06:12:57;;;;;;;15.75;3.80;;;;;;;;;;5104052;28;20095;-56
2022/04/30 06:15:23;;;;;;;17.23;3.22;;;;;;;;;;5108234;28;20121;-55
2022/04/30 06:17:49;;;;;;;20.08;3.65;;;;;;;;;;5112438;27;20131;-55
2022/04/30 06:20:15;;;;;;;9.38;3.63;;;;;;;;;;5111848;28;20058;-50
2022/04/30 06:22:42;;;;;;;16.58;3.50;;;;;;;;;;5101725;28;20031;-56
2022/04/30 06:25:08;;;;;;;9.00;3.92;;;;;;;;;;5096598;28;20032;-55
2022/04/30 06:27:35;;;;;;;18.65;3.88;;;;;;;;;;5109004;27;20027;-54
2022/04/30 06:30:02;;;;;;;12.93;3.95;;;;;;;;;;5111677;27;20043;-54
2022/04/30 06:32:28;;;;;;;10.75;3.20;;;;;;;;;;5101242;28;20123;-50
2022/04/30 06:34:54;;;;;;;23.42;4.18;;;;;;;;;;5104026;28;20030;-52
2022/04/30 06:37:20;;;;;;;12.85;3.08;;;;;;;;;;5105911;28;20023;-53
2022/04/30 06:39:47;;;;;;;20.20;3.50;;;;;;;;;;5109977;28;20046;-52
2022/04/30 06:42:13;;;;;;;8.07;2.78;;;;;;;;;;5111530;28;20030;-49
2022/04/30 06:44:39;;;;;;;17.08;3.13;;;;;;;;;;5102111;28;20036;-54
2022/04/30 06:47:06;;;;;;;9.90;3.15;;;;;;;;;;5106214;28;20106;-54
2022/04/30 06:49:32;;;;;;;15.07;3.35;;;;;;;;;;5111214;28;20039;-54
2022/04/30 06:51:58;;;;;;;13.52;3.08;;;;;;;;;;5111812;28;20575;-51
2022/04/30 06:57:12;;;;;;;23.98;3.38;;;;;;;;;;5103744;28;20038;-53
2022/04/30 06:59:40;;;;;;;10.90;3.80;;;;;;;;;;5102086;28;20047;-53
2022/04/30 07:02:11;;;;;;;14.05;3.38;;;;;;;;;;5101553;28;20019;-56
2022/04/30 07:04:38;;;;;;;10.75;3.22;;;;;;;;;;5110509;28;20054;-51
2022/04/30 07:07:05;;;;;;;17.58;3.65;;;;;;;;;;5099714;28;20400;-54
2022/04/30 07:09:34;;;;;;;10.73;2.40;;;;;;;;;;5102392;28;20573;-56
2022/04/30 07:12:05;;;;;;;15.75;3.30;;;;;;;;;;5110435;28;20020;-52
2022/04/30 07:14:36;;;;;;;14.30;4.03;;;;;;;;;;5109402;28;20024;-52
2022/04/30 07:17:06;;;;;;;9.70;3.58;;;;;;;;;;5110354;28;20032;-54
2022/04/30 07:19:32;;;;;;;;;;;;;;;;;;5109754;28;20497;-53
2022/04/30 07:21:58;;;;;;;10.35;4.20;;;;;;;;;;5110007;28;20003;-51
2022/04/30 07:24:24;;;;;;;15.32;5.05;;;;;;;;;;5096485;28;20027;-54
2022/04/30 07:26:51;;;;;;;10.98;3.65;;;;;;;;;;5101796;28;20073;-56
2022/04/30 07:29:17;;;;;;;13.93;4.10;;;;;;;;;;5108917;28;20144;-51
2022/04/30 07:31:43;;;;;;;21.50;3.65;;;;;;;;;;5105593;28;20039;-53
2022/04/30 07:34:12;;;;;;;10.70;3.22;;;;;;;;;;5100424;28;20401;-51
2022/04/30 07:36:38;;;;;;;9.00;3.80;;;;;;;;;;5108818;28;20070;-55
2022/04/30 07:39:05;;;;;;;9.90;3.55;;;;;;;;;;5107166;28;20134;-51
2022/04/30 07:41:31;;;;;;;10.63;3.80;;;;;;;;;;5101766;28;20729;-53
2022/04/30 07:43:57;;;;;;;6.57;2.67;;;;;;;;;;5103434;28;20106;-52
2022/04/30 07:46:23;;;;;;;9.35;3.00;;;;;;;;;;5109908;28;20039;-53
2022/04/30 07:48:50;;;;;;;9.88;3.65;;;;;;;;;;5109673;28;20035;-53
2022/04/30 07:51:23;;;;;;;9.88;3.35;;;;;;;;;;5099331;28;20032;-51
2022/04/30 07:53:49;;;;;;;12.65;2.85;;;;;;;;;;5100409;28;20035;-54
2022/04/30 07:56:16;;;;;;;13.98;3.75;;;;;;;;;;5109803;28;20049;-51
2022/04/30 07:58:42;;;;;;;16.60;3.22;;;;;;;;;;5109558;28;20795;-53
2022/04/30 08:01:09;;;;;;;22.40;3.70;;;;;;;;;;5110143;28;20534;-51
2022/04/30 08:03:37;;;;;;;12.05;3.53;;;;;;;;;;5107614;28;20446;-51
2022/04/30 08:06:04;;;;;;;14.57;3.45;;;;;;;;;;5099127;28;20081;-51
2022/04/30 08:08:30;;;;;;;13.10;3.90;;;;;;;;;;5110263;28;20099;-51
2022/04/30 08:10:56;;;;;;;8.40;3.80;;;;;;;;;;5107884;28;20020;-55
2022/04/30 08:13:22;;;;;;;7.32;3.53;;;;;;;;;;5098826;28;20038;-53
2022/04/30 08:15:48;;;;;;;11.63;3.63;;;;;;;;;;5106177;28;20072;-50
2022/04/30 08:18:14;;;;;;;16.33;4.13;;;;;;;;;;5101736;28;20028;-53
2022/04/30 08:20:40;;;;;;;14.30;3.42;;;;;;;;;;5107718;28;20555;-51
2022/04/30 08:23:07;;;;;;;12.75;3.30;;;;;;;;;;5109149;28;20027;-52
2022/04/30 08:25:34;;;;;;;13.00;3.33;;;;;;;;;;5109479;27;20110;-54
2022/04/30 08:28:00;;;;;;;9.60;2.95;;;;;;;;;;5109755;28;20056;-54
2022/04/30 08:30:26;;;;;;;9.35;2.83;;;;;;;;;;5109046;28;20051;-51
2022/04/30 08:32:52;;;;;;;15.43;2.97;;;;;;;;;;5105635;28;20034;-50
2022/04/30 08:35:18;;;;;;;8.10;2.88;;;;;;;;;;5105335;28;20043;-53
2022/04/30 08:37:45;;;;;;;9.98;2.30;;;;;;;;;;5107788;28;20570;-53
2022/04/30 08:40:11;;;;;;;10.75;2.63;;;;;;;;;;5106642;28;20079;-52
2022/04/30 08:42:37;;;;;;;6.50;2.65;;;;;;;;;;5108652;28;20038;-53
2022/04/30 08:45:04;;;;;;;12.20;2.67;;;;;;;;;;5107757;28;20118;-55
2022/04/30 08:47:30;;;;;;;10.38;2.35;;;;;;;;;;5108431;28;20047;-50
2022/04/30 08:49:57;;;;;;;12.27;2.70;;;;;;;;;;5107185;28;20015;-52
2022/04/30 08:52:24;;;;;;;11.02;2.17;;;;;;;;;;5108908;28;20139;-53
2022/04/30 08:54:50;;;;;;;10.10;2.40;;;;;;;;;;5108816;28;20030;-54
2022/04/30 08:57:16;;;;;;;7.20;1.90;;;;;;;;;;5109584;28;20027;-54
2022/04/30 08:59:42;;;;;;;8.15;2.30;;;;;;;;;;5109357;28;20040;-55
2022/04/30 09:02:10;;;;;;;8.63;2.47;;;;;;;;;;5107399;28;20031;-52
2022/04/30 09:04:49;;;;;;;14.45;2.47;;;;;;;;;;5107427;28;20055;-52
2022/04/30 09:07:20;;;;;;;6.20;2.40;;;;;;;;;;5105136;28;20027;-55
2022/04/30 09:09:56;;;;;;;8.52;2.80;;;;;;;;;;5107576;28;20269;-55
2022/04/30 09:12:23;;;;;;;6.60;2.30;;;;;;;;;;5107219;28;20028;-55
2022/04/30 09:14:49;;;;;;;7.47;2.42;;;;;;;;;;5105516;28;20024;-49
2022/04/30 09:17:16;;;;;;;7.07;2.20;;;;;;;;;;5107987;28;20068;-52
2022/04/30 09:19:45;;;;;;;7.35;2.00;;;;;;;;;;5107803;28;20047;-51
2022/04/30 09:22:11;;;;;;;6.53;2.97;;;;;;;;;;5105780;28;20028;-52
2022/04/30 09:24:44;;;;;;;8.18;2.60;;;;;;;;;;5107683;28;20102;-53
2022/04/30 09:27:13;;;;;;;6.88;2.35;;;;;;;;;;5107226;28;20050;-53
2022/04/30 09:29:39;;;;;;;7.07;2.03;;;;;;;;;;5108139;28;20435;-55
2022/04/30 09:32:06;;;;;;;10.73;2.38;;;;;;;;;;5107392;28;21618;-52
2022/04/30 09:37:41;;;;;;;8.68;2.78;;;;;;;;;;5107096;28;20156;-47
2022/04/30 09:40:17;;;;;;;10.43;2.03;;;;;;;;;;5108018;28;20131;-53
2022/04/30 09:42:46;;;;;;;5.20;1.75;;;;;;;;;;5108204;28;20027;-51
2022/04/30 09:45:27;;;;;;;13.45;2.72;;;;;;;;;;5105320;28;20096;-51
2022/04/30 09:47:55;;;;;;;10.35;2.55;;;;;;;;;;5106574;28;20022;-55
2022/04/30 09:55:56;;;;;;;9.20;4.05;;;;;;;;;;5107242;28;20038;-54
2022/04/30 09:58:24;;;;;;;11.98;4.53;;;;;;;;;;5108033;28;20042;-54
2022/04/30 10:00:55;;;;;;;10.13;4.43;;;;;;;;;;5098476;28;20024;-51
2022/04/30 10:03:25;;;;;;;10.77;4.20;;;;;;;;;;5098573;28;20048;-53
2022/04/30 10:05:54;;;;;;;11.05;4.63;;;;;;;;;;5090969;28;20024;-55
2022/04/30 10:08:20;;;;;;;9.95;3.45;;;;;;;;;;5096423;28;20088;-54
2022/04/30 10:10:51;;;;;;;10.30;3.88;;;;;;;;;;5106701;28;20745;-53
2022/04/30 10:13:24;;;;;;;7.00;3.17;;;;;;;;;;5106489;28;20027;-55
2022/04/30 10:15:51;;;;;;;5.35;2.85;;;;;;;;;;5096114;28;20393;-53
2022/04/30 10:18:19;;;;;;;45.08;4.57;;;;;;;;;;5094537;28;20452;-51
2022/04/30 10:20:51;;;;;;;13.52;3.63;;;;;;;;;;5090605;28;20040;-54
2022/04/30 10:23:17;;;;;;;16.52;3.97;;;;;;;;;;5099482;28;20039;-54
2022/04/30 10:25:47;;;;;;;8.73;3.25;;;;;;;;;;5090782;28;20031;-51
2022/04/30 10:28:19;;;;;;;14.63;3.65;;;;;;;;;;5098091;28;20076;-53
2022/04/30 10:30:46;;;;;;;14.77;3.55;;;;;;;;;;5101118;28;21142;-54
2022/04/30 10:33:12;;;;;;;22.73;3.97;;;;;;;;;;5091401;28;20135;-53
2022/04/30 10:35:39;;;;;;;11.80;3.10;;;;;;;;;;5096119;28;20024;-56
2022/04/30 10:38:20;;;;;;;11.50;2.92;;;;;;;;;;5095049;28;20035;-54
2022/04/30 10:40:47;;;;;;;11.02;3.40;;;;;;;;;;5099918;28;20079;-53
2022/04/30 10:43:17;;;;;;;12.20;3.50;;;;;;;;;;5099679;28;20031;-52
2022/04/30 10:45:44;;;;;;;8.30;3.13;;;;;;;;;;5094194;28;20021;-51
2022/04/30 10:48:11;;;;;;;8.23;2.85;;;;;;;;;;5096105;28;20418;-50
2022/04/30 10:50:37;;;;;;;15.43;4.43;;;;;;;;;;5095829;28;20040;-58
2022/04/30 10:53:07;;;;;;;14.30;5.72;;;;;;;;;;5092619;28;20498;-48
2022/04/30 10:55:33;;;;;;;9.17;4.67;;;;;;;;;;5099331;28;20023;-55
2022/04/30 10:57:59;;;;;;;10.18;4.95;;;;;;;;;;5101980;28;20035;-51
2022/04/30 11:00:26;;;;;;;11.77;4.78;;;;;;;;;;5098265;28;20026;-54
2022/04/30 11:02:52;;;;;;;13.38;4.45;;;;;;;;;;5097495;28;20031;-56
2022/04/30 11:05:18;;;;;;;6.05;3.78;;;;;;;;;;5101051;28;20035;-52
2022/04/30 11:07:45;;;;;;;6.57;3.85;;;;;;;;;;5110956;28;20493;-53
2022/04/30 11:10:11;;;;;;;12.93;4.40;;;;;;;;;;5111447;28;20024;-53
2022/04/30 11:12:37;;;;;;;8.93;4.00;;;;;;;;;;5111396;28;20055;-54
2022/04/30 11:15:03;;;;;;;7.85;4.03;;;;;;;;;;5110109;28;20019;-54
2022/04/30 11:17:29;;;;;;;12.77;4.22;;;;;;;;;;5110978;28;20103;-54
2022/04/30 11:19:55;;;;;;;8.63;3.42;;;;;;;;;;5110520;28;20088;-52
2022/04/30 11:22:22;;;;;;;11.07;4.43;;;;;;;;;;5111013;27;20786;-52
2022/04/30 11:24:49;;;;;;;11.38;3.65;;;;;;;;;;5110671;28;20023;-54
2022/04/30 11:27:15;;;;;;;10.45;3.80;;;;;;;;;;5109277;28;20059;-50
2022/04/30 11:29:57;;;;;;;11.65;3.78;;;;;;;;;;5099988;27;20151;-60
2022/04/30 11:32:24;;;;;;;16.40;4.40;;;;;;;;;;5099246;28;20485;-60
2022/04/30 11:34:51;;;;;;;16.33;4.38;;;;;;;;;;5102721;28;20071;-60
2022/04/30 11:37:17;;;;;;;16.17;3.70;;;;;;;;;;5099903;28;20024;-57
2022/04/30 11:39:43;;;;;;;10.45;3.67;;;;;;;;;;5103360;28;20035;-53
2022/04/30 11:42:09;;;;;;;10.68;3.80;;;;;;;;;;5099620;27;20035;-52
2022/04/30 11:44:35;;;;;;;10.60;3.85;;;;;;;;;;5099171;28;20032;-54
2022/04/30 11:47:02;;;;;;;7.20;3.55;;;;;;;;;;5100220;28;20023;-53
2022/04/30 11:49:28;;;;;;;8.93;3.40;;;;;;;;;;5102190;28;20019;-54
2022/04/30 11:51:57;;;;;;;13.75;3.78;;;;;;;;;;5102382;28;20028;-54
2022/04/30 11:54:25;;;;;;;19.60;4.30;;;;;;;;;;5097978;28;20160;-54
2022/04/30 11:56:52;;;;;;;16.40;3.60;;;;;;;;;;5101270;28;20032;-54
2022/04/30 11:59:38;;;;;;;7.15;4.38;;;;;;;;;;5101957;28;20119;-49
2022/04/30 12:02:10;;;;;;;10.55;3.60;;;;;;;;;;5102764;28;20023;-51
2022/04/30 12:04:43;;;;;;;11.75;3.88;;;;;;;;;;5099029;28;20467;-54
2022/04/30 12:07:11;;;;;;;8.52;3.75;;;;;;;;;;5098179;28;20031;-53
2022/04/30 12:09:38;;;;;;;10.90;3.20;;;;;;;;;;5100225;27;20070;-52
2022/04/30 12:12:17;;;;;;;7.05;3.35;;;;;;;;;;5098622;28;20508;-54
2022/04/30 12:14:47;;;;;;;10.65;3.47;;;;;;;;;;5099341;28;20032;-54
2022/04/30 12:17:13;;;;;;;13.70;3.83;;;;;;;;;;5099260;28;20509;-56
2022/04/30 12:25:17;;;;;;;8.90;3.15;;;;;;;;;;5102586;28;20043;-54
2022/04/30 12:27:57;;;;;;;11.68;4.03;;;;;;;;;;5097347;28;20067;-54
2022/04/30 12:30:23;;;;;;;7.30;3.47;;;;;;;;;;5096826;28;20040;-56
2022/04/30 12:33:05;;;;;;;7.43;3.03;;;;;;;;;;5098632;28;20052;-55
2022/04/30 12:35:33;;;;;;;10.35;3.00;;;;;;;;;;5097032;28;20108;-55
2022/04/30 12:38:08;;;;;;;9.65;3.33;;;;;;;;;;5099642;28;20054;-53
2022/04/30 12:40:35;;;;;;;10.05;3.97;;;;;;;;;;5100051;28;20036;-54
2022/04/30 12:43:02;;;;;;;8.48;3.28;;;;;;;;;;5106731;28;20047;-50
2022/04/30 12:45:28;;;;;;;10.18;3.42;;;;;;;;;;5102226;28;20310;-52
2022/04/30 12:47:54;;;;;;;8.82;3.78;;;;;;;;;;5105084;28;20509;-52
2022/04/30 12:50:20;;;;;;;10.38;4.22;;;;;;;;;;5107952;28;20476;-52
2022/04/30 12:52:46;;;;;;;13.88;3.55;;;;;;;;;;5096314;27;20024;-54
2022/04/30 12:55:14;;;;;;;8.57;3.35;;;;;;;;;;5096734;27;20046;-52
2022/04/30 12:57:40;;;;;;;9.85;3.38;;;;;;;;;;5098199;28;20031;-54
2022/04/30 13:00:10;;;;;;;7.85;3.47;;;;;;;;;;5100128;28;20031;-54
2022/04/30 13:02:38;;;;;;;6.22;3.38;;;;;;;;;;5101463;28;20039;-52
2022/04/30 13:05:06;;;;;;;11.60;3.50;;;;;;;;;;5098743;27;20047;-53
2022/04/30 13:07:32;;;;;;;5.80;3.20;;;;;;;;;;5099577;28;20036;-54
2022/04/30 13:15:28;;;;;;;8.00;2.60;;;;;;;;;;5096966;28;20046;-53
2022/04/30 13:17:56;;;;;;;6.20;2.90;;;;;;;;;;5098370;28;20474;-53
2022/04/30 13:20:22;;;;;;;8.43;3.13;;;;;;;;;;5102094;28;20189;-50
2022/04/30 13:22:52;;;;;;;10.52;3.08;;;;;;;;;;5099367;28;20465;-51
2022/04/30 13:25:18;;;;;;;5.15;3.10;;;;;;;;;;5101098;28;20155;-54
2022/04/30 13:27:46;;;;;;;5.53;3.38;;;;;;;;;;5100408;28;20031;-50
2022/04/30 13:30:15;;;;;;;4.57;2.75;;;;;;;;;;5099506;28;20024;-53
2022/04/30 13:32:41;;;;;;;7.82;2.90;;;;;;;;;;5098646;28;20100;-52
2022/04/30 13:35:08;;;;;;;6.72;3.40;;;;;;;;;;5098214;28;20119;-50
2022/04/30 13:37:40;;;;;;;6.03;2.60;;;;;;;;;;5099596;28;20389;-54
2022/04/30 13:40:09;;;;;;;9.07;3.10;;;;;;;;;;5098083;28;20224;-55
2022/04/30 13:42:35;;;;;;;6.43;3.25;;;;;;;;;;5099798;28;20030;-53
2022/04/30 13:45:03;;;;;;;4.82;2.50;;;;;;;;;;5101238;28;21612;-53
2022/04/30 13:47:29;;;;;;;7.38;3.28;;;;;;;;;;5100188;28;20389;-54
2022/04/30 13:49:55;;;;;;;5.80;2.75;;;;;;;;;;5100050;28;20207;-53
2022/04/30 13:52:21;;;;;;;6.15;3.08;;;;;;;;;;5098815;28;20029;-51
2022/04/30 13:54:48;;;;;;;5.15;2.90;;;;;;;;;;5100498;28;20142;-53
2022/04/30 13:57:14;;;;;;;5.30;2.53;;;;;;;;;;5099477;28;20386;-53
2022/04/30 13:59:41;;;;;;;5.38;2.85;;;;;;;;;;5097613;28;20038;-51
2022/04/30 14:02:10;;;;;;;5.63;2.45;;;;;;;;;;5101030;28;20035;-53
2022/04/30 14:04:36;;;;;;;6.97;2.80;;;;;;;;;;5100237;28;20144;-51
2022/04/30 14:07:02;;;;;;;3.95;2.42;;;;;;;;;;5100339;28;20038;-53
2022/04/30 14:09:29;;;;;;;8.85;3.40;;;;;;;;;;5098814;28;20103;-50
2022/04/30 14:11:56;;;;;;;7.90;2.58;;;;;;;;;;5099976;28;20107;-52
2022/04/30 14:19:51;;;;;;;6.30;2.53;;;;;;;;;;5099757;28;20043;-50
2022/04/30 14:22:17;;;;;;;7.90;3.20;;;;;;;;;;5098188;28;20040;-52
2022/04/30 14:24:44;;;;;;;13.68;4.05;;;;;;;;;;5096700;28;20035;-52
2022/04/30 14:27:10;;;;;;;7.78;2.05;;;;;;;;;;5099910;28;20027;-53
2022/04/30 14:29:36;;;;;;;9.73;2.50;;;;;;;;;;5099157;28;20099;-50
2022/04/30 14:32:02;;;;;;;8.02;2.70;;;;;;;;;;5100838;28;20167;-52
2022/04/30 14:34:28;;;;;;;4.63;2.30;;;;;;;;;;5100230;28;20067;-53
2022/04/30 14:36:54;;;;;;;14.90;2.70;;;;;;;;;;5100878;28;20016;-51
2022/04/30 14:39:20;;;;;;;6.13;2.10;;;;;;;;;;5101799;28;20031;-54
2022/04/30 14:41:46;;;;;;;5.03;2.40;;;;;;;;;;5104829;28;20126;-50
2022/04/30 14:44:12;;;;;;;5.57;2.15;;;;;;;;;;5105717;28;20035;-54
2022/04/30 14:46:39;;;;;;;10.27;2.50;;;;;;;;;;5101663;28;20032;-52
2022/04/30 14:49:05;;;;;;;5.30;2.05;;;;;;;;;;5102348;28;20559;-52
2022/04/30 14:51:31;;;;;;;4.82;2.03;;;;;;;;;;5101527;28;20050;-51
2022/04/30 14:53:57;;;;;;;6.20;2.58;;;;;;;;;;5103175;28;20034;-52
2022/04/30 14:56:23;;;;;;;5.70;2.15;;;;;;;;;;5101577;27;20031;-52
2022/04/30 14:58:50;;;;;;;5.43;1.70;;;;;;;;;;5100578;27;20041;-52
2022/04/30 15:01:16;;;;;;;3.80;2.22;;;;;;;;;;5103316;27;20035;-52
2022/04/30 15:03:44;;;;;;;5.28;2.25;;;;;;;;;;5102066;28;20073;-49
2022/04/30 15:06:11;;;;;;;5.40;2.15;;;;;;;;;;5102202;28;20256;-52
2022/04/30 15:08:37;;;;;;;7.45;1.95;;;;;;;;;;5100658;27;20107;-52
2022/04/30 15:11:03;;;;;;;7.65;2.35;;;;;;;;;;5100776;27;20034;-51
2022/04/30 15:13:29;;;;;;;5.88;2.35;;;;;;;;;;5100580;28;20640;-54
2022/04/30 15:15:56;;;;;;;4.63;1.85;;;;;;;;;;5102516;28;20486;-51
2022/04/30 15:18:22;;;;;;;6.57;2.65;;;;;;;;;;5101899;28;20031;-51
2022/04/30 15:20:49;;;;;;;7.53;2.70;;;;;;;;;;5104056;28;20434;-52
2022/04/30 15:23:15;;;;;;;5.03;2.08;;;;;;;;;;5104608;28;20040;-48
2022/04/30 15:25:44;;;;;;;7.10;2.88;;;;;;;;;;5103890;28;20604;-54
2022/04/30 15:28:10;;;;;;;9.88;4.40;;;;;;;;;;5103095;28;20039;-50